Time;durP1;ratioP1;P1;durP2;ratioP2;P2;SDS_P1;SDS_P2;PMS_P1;PMS_P2;Temp;Humidity;BMP_temperature;BMP_pressure;BME280_temperature;BME280_humidity;BME280_pressure;Samples;Min_cycle;Max_cycle;Signal;HPM_P1;HPM_P2
2020/12/25 00:03:26;;;;;;;8.30;1.88;;;;;;;2.96;81.06;101560.72;10122425;28;20054;-65
2020/12/25 00:08:22;;;;;;;8.00;2.20;;;;;;;2.93;81.62;101555.81;10137114;28;20762;-66
2020/12/25 00:13:18;;;;;;;9.45;2.60;;;;;;;3.01;80.89;101562.69;10122079;28;20056;-66
2020/12/25 00:18:14;;;;;;;9.82;2.40;;;;;;;2.96;81.34;101566.13;10125182;28;20039;-65
2020/12/25 00:23:16;;;;;;;7.20;2.30;;;;;;;2.87;80.70;101562.19;10124627;28;20116;-66
2020/12/25 00:28:13;;;;;;;8.52;1.92;;;;;;;2.86;81.42;101560.56;10133497;28;20038;-66
2020/12/25 00:33:11;;;;;;;7.45;2.25;;;;;;;2.84;81.72;101568.09;10120363;28;20503;-66
2020/12/25 00:38:06;;;;;;;10.80;3.25;;;;;;;2.88;80.41;101586.25;10126086;28;20113;-67
2020/12/25 00:43:02;;;;;;;7.47;2.10;;;;;;;3.00;80.48;101594.28;10125288;28;20052;-66
2020/12/25 00:47:58;;;;;;;11.70;3.28;;;;;;;2.87;80.77;101600.81;10134745;28;20058;-66
2020/12/25 00:52:54;;;;;;;10.45;2.33;;;;;;;2.78;80.81;101601.47;10147265;28;20066;-66
2020/12/25 00:57:50;;;;;;;7.88;3.13;;;;;;;2.70;80.95;101600.81;10143999;28;20050;-65
2020/12/25 01:02:46;;;;;;;6.25;2.28;;;;;;;2.58;82.20;101604.66;10151351;28;20069;-64
2020/12/25 01:07:43;;;;;;;12.45;3.00;;;;;;;2.74;81.58;101596.56;10154273;28;20660;-64
2020/12/25 01:12:39;;;;;;;6.53;2.80;;;;;;;2.79;81.75;101603.13;10151223;28;20046;-65
2020/12/25 01:17:35;;;;;;;12.15;3.28;;;;;;;2.74;81.19;101607.38;10146208;28;20137;-65
2020/12/25 01:22:31;;;;;;;6.63;2.70;;;;;;;2.63;81.18;101620.94;10157679;28;20061;-65
2020/12/25 01:27:27;;;;;;;6.95;2.47;;;;;;;2.53;81.63;101632.38;10139561;28;20082;-65
2020/12/25 01:32:23;;;;;;;11.23;2.70;;;;;;;2.43;81.56;101645.66;10144381;28;20050;-64
2020/12/25 01:37:19;;;;;;;10.35;2.60;;;;;;;2.39;81.33;101658.81;10148867;28;20046;-64
2020/12/25 01:42:14;;;;;;;10.07;3.08;;;;;;;2.22;81.69;101656.03;10148420;28;20121;-65
2020/12/25 01:47:16;;;;;;;9.02;2.47;;;;;;;2.26;81.36;101653.69;10145445;28;20566;-65
2020/12/25 01:52:13;;;;;;;8.27;2.90;;;;;;;2.16;80.84;101654.31;10144617;28;20070;-65
2020/12/25 01:57:12;;;;;;;9.45;2.67;;;;;;;2.11;81.16;101654.19;10142808;28;20150;-64
2020/12/25 02:02:09;;;;;;;12.50;2.75;;;;;;;2.03;81.42;101659.97;10127540;28;20105;-64
2020/12/25 02:07:19;;;;;;;7.18;2.60;;;;;;;1.89;81.37;101671.00;10129394;28;20047;-64
2020/12/25 02:12:16;;;;;;;8.57;2.58;;;;;;;1.70;81.85;101677.59;10133098;28;20065;-64
2020/12/25 02:17:12;;;;;;;8.88;3.90;;;;;;;1.67;81.93;101678.03;10132817;28;20110;-65
2020/12/25 02:22:08;;;;;;;10.98;3.05;;;;;;;1.47;82.29;101690.00;10132994;28;20043;-65
2020/12/25 02:27:04;;;;;;;8.90;2.60;;;;;;;1.32;82.95;101703.09;10126628;28;20418;-65
2020/12/25 02:32:00;;;;;;;10.50;2.40;;;;;;;1.30;82.90;101712.47;10143493;28;20069;-64
2020/12/25 02:36:56;;;;;;;14.27;3.13;;;;;;;1.19;83.00;101708.72;10135412;28;20050;-65
2020/12/25 02:41:52;;;;;;;14.10;2.67;;;;;;;1.13;82.79;101701.53;10142940;28;20050;-65
2020/12/25 02:46:48;;;;;;;9.48;2.65;;;;;;;1.13;82.86;101694.28;10129555;28;20051;-64
2020/12/25 02:51:46;;;;;;;9.70;3.15;;;;;;;0.89;83.18;101714.13;10138761;28;20537;-65
2020/12/25 02:56:42;;;;;;;13.23;2.58;;;;;;;0.82;83.45;101714.22;10132996;28;20137;-65
2020/12/25 03:01:38;;;;;;;12.85;2.80;;;;;;;0.72;83.11;101730.91;10124780;28;20054;-65
2020/12/25 03:06:34;;;;;;;7.80;2.70;;;;;;;0.69;83.47;101722.44;10123698;28;20054;-65
2020/12/25 03:11:30;;;;;;;7.07;2.50;;;;;;;0.64;83.28;101723.13;10141889;28;20049;-64
2020/12/25 03:16:26;;;;;;;12.18;4.32;;;;;;;0.64;83.37;101728.50;10129425;28;20054;-64
2020/12/25 03:21:23;;;;;;;10.05;2.30;;;;;;;0.61;83.30;101729.78;10133062;28;20057;-65
2020/12/25 03:26:19;;;;;;;10.73;1.65;;;;;;;0.53;83.14;101738.16;10137089;28;20055;-65
2020/12/25 03:31:15;;;;;;;11.02;2.33;;;;;;;0.61;82.79;101727.09;10131489;28;20055;-64
2020/12/25 03:36:11;;;;;;;9.52;1.80;;;;;;;0.48;82.61;101735.34;10133480;28;20062;-64
2020/12/25 03:41:07;;;;;;;11.23;2.17;;;;;;;0.50;82.69;101738.63;10144754;28;20057;-65
2020/12/25 03:46:03;;;;;;;13.75;2.15;;;;;;;0.37;82.15;101752.22;10141336;28;20054;-65
2020/12/25 03:51:00;;;;;;;6.80;2.03;;;;;;;0.42;82.21;101747.00;10108673;28;20050;-65
2020/12/25 03:55:56;;;;;;;9.73;1.65;;;;;;;0.48;82.01;101746.09;10140104;28;20101;-64
2020/12/25 04:00:52;;;;;;;8.05;1.48;;;;;;;0.52;81.66;101752.69;10122298;28;20079;-64
2020/12/25 04:05:48;;;;;;;7.95;3.25;;;;;;;0.48;81.58;101761.44;10136796;28;20170;-64
2020/12/25 04:10:44;;;;;;;11.13;2.17;;;;;;;0.37;81.08;101749.53;10140874;28;20086;-66
2020/12/25 04:15:40;;;;;;;9.60;1.60;;;;;;;0.40;81.14;101759.88;10135143;28;20061;-64
2020/12/25 04:20:36;;;;;;;8.77;1.48;;;;;;;0.18;81.70;101768.34;10119656;28;20141;-64
2020/12/25 04:25:32;;;;;;;7.78;1.42;;;;;;;0.30;81.25;101764.94;10137862;28;20062;-64
2020/12/25 04:30:28;;;;;;;8.00;1.60;;;;;;;0.28;81.49;101778.63;10137809;28;20546;-64
2020/12/25 04:35:24;;;;;;;7.82;1.13;;;;;;;0.19;81.47;101770.00;10127647;28;20046;-65
2020/12/25 04:40:20;;;;;;;8.38;1.80;;;;;;;0.19;81.04;101780.78;10101500;28;20502;-65
2020/12/25 04:45:17;;;;;;;11.43;1.88;;;;;;;0.26;81.11;101774.50;10117833;28;20228;-65
2020/12/25 04:50:13;;;;;;;12.10;1.40;;;;;;;0.22;80.97;101784.88;10120653;28;20109;-65
2020/12/25 04:55:09;;;;;;;8.05;1.50;;;;;;;0.25;80.90;101794.38;10126379;28;20062;-66
2020/12/25 05:00:21;;;;;;;13.30;2.13;;;;;;;0.19;81.14;101796.09;10132171;28;20050;-65
2020/12/25 05:05:18;;;;;;;9.18;1.90;;;;;;;0.19;80.45;101796.09;10136891;28;20070;-65
2020/12/25 05:10:14;;;;;;;8.57;1.55;;;;;;;0.08;80.73;101789.56;10132928;28;20102;-65
2020/12/25 05:15:10;;;;;;;11.52;1.90;;;;;;;0.08;81.27;101794.13;10121512;28;20498;-65
2020/12/25 05:20:06;;;;;;;7.60;1.80;;;;;;;0.00;80.99;101792.56;10125405;28;20092;-65
2020/12/25 05:25:07;;;;;;;9.00;1.60;;;;;;;-0.05;81.03;101801.28;10131103;28;20054;-64
2020/12/25 05:30:05;;;;;;;10.68;2.10;;;;;;;-0.03;81.76;101809.94;10117140;28;20046;-65
2020/12/25 05:35:02;;;;;;;7.85;1.60;;;;;;;-0.19;81.54;101804.28;10144343;28;21331;-64
2020/12/25 05:40:04;;;;;;;8.52;1.60;;;;;;;-0.17;81.47;101808.41;10137108;28;20055;-64
2020/12/25 05:45:01;;;;;;;13.88;1.83;;;;;;;-0.09;80.88;101826.13;10136539;28;20054;-64
2020/12/25 05:49:56;;;;;;;14.68;4.40;;;;;;;-0.11;80.81;101829.03;10130731;28;20077;-64
2020/12/25 05:54:55;;;;;;;9.13;1.80;;;;;;;-0.09;80.48;101826.13;10135548;28;20085;-65
2020/12/25 05:59:54;;;;;;;8.10;1.45;;;;;;;-0.15;80.73;101837.75;10134213;28;20140;-65
2020/12/25 06:04:50;;;;;;;9.88;1.55;;;;;;;-0.16;81.18;101849.53;10118054;28;20042;-64
2020/12/25 06:09:59;;;;;;;7.93;1.80;;;;;;;-0.26;80.93;101848.16;10125752;28;20045;-65
2020/12/25 06:14:55;;;;;;;8.18;1.60;;;;;;;-0.19;80.69;101855.34;10136300;28;20058;-64
2020/12/25 06:20:03;;;;;;;7.70;1.83;;;;;;;-0.30;81.07;101867.63;10129509;28;20047;-65
2020/12/25 06:25:00;;;;;;;10.13;1.77;;;;;;;-0.33;81.02;101868.88;10125050;28;20050;-65
2020/12/25 06:29:57;;;;;;;7.45;1.92;;;;;;;-0.40;81.46;101868.09;10137476;28;20047;-65
2020/12/25 06:35:01;;;;;;;11.70;1.60;;;;;;;-0.51;81.59;101879.53;10137484;28;20058;-65
2020/12/25 06:40:08;;;;;;;9.75;1.45;;;;;;;-0.36;80.99;101890.81;10138421;28;20106;-65
2020/12/25 06:45:06;;;;;;;9.75;1.70;;;;;;;-0.32;81.02;101883.97;10134490;28;20491;-65
2020/12/25 06:50:10;;;;;;;7.78;1.20;;;;;;;-0.30;80.90;101884.59;10132948;28;20054;-65
2020/12/25 06:55:06;;;;;;;10.15;1.85;;;;;;;-0.44;80.79;101897.28;10135075;28;20137;-65
2020/12/25 07:00:03;;;;;;;9.20;1.48;;;;;;;-0.48;80.96;101887.19;10135706;28;20058;-65
2020/12/25 07:05:01;;;;;;;5.50;1.38;;;;;;;-0.51;80.84;101890.28;10139035;28;20046;-65
2020/12/25 07:10:05;;;;;;;7.15;1.67;;;;;;;-0.51;80.75;101896.50;10131894;28;20089;-65
2020/12/25 07:15:01;;;;;;;11.05;1.90;;;;;;;-0.39;80.38;101915.44;10130811;28;20505;-65
2020/12/25 07:19:57;;;;;;;5.10;1.50;;;;;;;-0.38;80.59;101919.78;10139730;28;20128;-66
2020/12/25 07:24:53;;;;;;;4.88;1.05;;;;;;;-0.37;80.45;101925.97;10139233;28;20121;-66
2020/12/25 07:29:50;;;;;;;9.98;1.65;;;;;;;-0.33;80.24;101933.38;10141738;28;20049;-65
2020/12/25 07:34:46;;;;;;;7.20;1.38;;;;;;;-0.47;80.02;101937.19;10139055;28;20137;-66
2020/12/25 07:39:42;;;;;;;8.10;1.50;;;;;;;-0.49;80.41;101956.22;10140205;28;20513;-66
2020/12/25 07:44:38;;;;;;;6.32;1.55;;;;;;;-0.50;80.40;101964.50;10137812;28;20117;-65
2020/12/25 07:49:34;;;;;;;9.85;1.50;;;;;;;-0.59;80.50;101976.50;10140034;28;20042;-65
2020/12/25 07:54:30;;;;;;;8.98;1.27;;;;;;;-0.55;80.27;101972.38;10137061;28;20054;-66
2020/12/25 07:59:29;;;;;;;5.65;1.50;;;;;;;-0.49;79.92;101976.88;10131392;28;20473;-66
2020/12/25 08:04:25;;;;;;;4.47;1.02;;;;;;;-0.47;79.77;101980.19;10129898;28;20050;-65
2020/12/25 08:09:23;;;;;;;4.70;1.35;;;;;;;-0.35;79.62;101978.47;10133323;28;20495;-65
2020/12/25 08:14:21;;;;;;;5.53;1.60;;;;;;;-0.28;79.23;101995.41;10134533;28;20050;-65
2020/12/25 08:19:17;;;;;;;8.98;1.63;;;;;;;-0.30;79.34;102002.00;10129734;28;20137;-66
2020/12/25 08:24:13;;;;;;;12.07;1.58;;;;;;;-0.29;79.28;102000.97;10127398;28;20051;-65
2020/12/25 08:29:09;;;;;;;9.93;1.98;;;;;;;-0.51;79.49;102006.66;10127445;28;20047;-66
2020/12/25 08:34:06;;;;;;;8.25;1.17;;;;;;;-0.44;79.23;102017.38;10130211;28;20054;-65
2020/12/25 08:39:02;;;;;;;7.13;1.83;;;;;;;-0.27;78.94;102020.41;10132348;28;20042;-66
2020/12/25 08:44:10;;;;;;;4.95;1.27;;;;;;;-0.28;78.73;102021.44;10133168;28;20467;-65
2020/12/25 08:49:06;;;;;;;7.60;1.30;;;;;;;-0.19;78.67;102016.66;10137050;28;20112;-65
2020/12/25 08:54:05;;;;;;;9.82;1.63;;;;;;;-0.19;78.12;102024.72;10130343;28;20074;-66
2020/12/25 08:59:06;;;;;;;5.43;1.35;;;;;;;-0.12;78.31;102038.94;10129280;28;20522;-65
2020/12/25 09:04:03;;;;;;;6.57;1.38;;;;;;;-0.11;78.37;102046.00;10135389;28;20299;-65
2020/12/25 09:08:59;;;;;;;4.55;1.55;;;;;;;0.05;78.46;102040.13;10141139;28;20042;-66
2020/12/25 09:13:55;;;;;;;5.88;1.27;;;;;;;0.14;77.88;102030.75;10139256;28;20458;-66
2020/12/25 09:18:51;;;;;;;9.00;1.60;;;;;;;0.23;77.89;102033.16;10137958;28;20046;-65
2020/12/25 09:23:47;;;;;;;9.38;1.48;;;;;;;0.33;77.22;102038.91;10120599;28;20550;-65
2020/12/25 09:28:43;;;;;;;8.73;1.95;;;;;;;0.39;76.75;102054.19;10142496;28;20050;-65
2020/12/25 09:33:41;;;;;;;10.07;1.30;;;;;;;0.44;76.46;102046.28;10133446;28;20429;-66
2020/12/25 09:38:43;;;;;;;5.47;1.35;;;;;;;0.76;75.52;102054.31;10136237;28;20050;-65
2020/12/25 09:43:41;;;;;;;5.55;1.13;;;;;;;0.79;74.67;102060.13;10142660;28;20506;-66
2020/12/25 09:48:38;;;;;;;7.35;2.15;;;;;;;1.14;73.87;102070.38;10142167;28;20058;-65
2020/12/25 09:53:34;;;;;;;5.03;1.00;;;;;;;1.32;72.85;102064.16;10131782;28;20529;-65
2020/12/25 09:58:30;;;;;;;3.00;0.80;;;;;;;1.31;72.78;102062.53;10121570;28;20062;-65
2020/12/25 10:03:26;;;;;;;4.72;1.17;;;;;;;1.61;73.06;102056.41;10129569;28;20065;-65
2020/12/25 10:08:22;;;;;;;7.95;1.30;;;;;;;1.88;72.24;102071.25;10120092;28;20047;-65
2020/12/25 10:13:18;;;;;;;6.55;1.60;;;;;;;1.90;70.45;102076.38;10131486;28;20061;-65
2020/12/25 10:18:14;;;;;;;12.77;1.48;;;;;;;1.94;70.65;102080.28;10133462;28;20042;-65
2020/12/25 10:23:10;;;;;;;8.75;1.40;;;;;;;1.91;71.04;102069.13;10127159;28;20050;-65
2020/12/25 10:28:06;;;;;;;7.30;1.15;;;;;;;2.20;69.58;102071.00;10139824;28;20057;-65
2020/12/25 10:33:02;;;;;;;5.15;1.17;;;;;;;2.50;69.19;102072.88;10124612;28;20585;-66
2020/12/25 10:37:58;;;;;;;12.10;2.30;;;;;;;2.57;69.24;102081.72;10131845;28;20051;-66
2020/12/25 10:42:58;;;;;;;9.23;1.15;;;;;;;2.49;68.93;102080.16;10142484;28;20062;-66
2020/12/25 10:47:54;;;;;;;14.55;1.45;;;;;;;2.58;67.80;102083.38;10137035;28;20077;-65
2020/12/25 10:52:50;;;;;;;5.10;0.98;;;;;;;2.73;68.76;102078.34;10129039;28;20050;-65
2020/12/25 10:57:45;;;;;;;9.60;1.00;;;;;;;2.85;67.43;102082.94;10130277;28;20053;-65
2020/12/25 11:02:41;;;;;;;6.70;1.58;;;;;;;2.74;67.14;102074.59;10122909;28;20061;-66
2020/12/25 11:07:37;;;;;;;7.13;1.42;;;;;;;2.71;66.98;102072.34;10120793;28;20127;-66
2020/12/25 11:12:33;;;;;;;10.02;1.50;;;;;;;2.80;67.28;102080.13;10123784;28;20060;-65
2020/12/25 11:17:29;;;;;;;10.65;1.17;;;;;;;3.02;67.28;102078.53;10130019;28;20062;-65
2020/12/25 11:22:25;;;;;;;6.40;1.58;;;;;;;3.11;66.27;102071.72;10127236;28;20050;-65
2020/12/25 11:27:21;;;;;;;5.53;1.55;;;;;;;3.14;65.84;102071.22;10128102;28;20054;-66
2020/12/25 11:32:19;;;;;;;4.43;1.23;;;;;;;3.34;65.73;102070.03;10134700;28;20113;-65
2020/12/25 11:37:15;;;;;;;8.65;1.50;;;;;;;3.51;64.56;102065.56;10144180;28;20054;-65
2020/12/25 11:42:11;;;;;;;7.10;1.77;;;;;;;3.68;64.20;102070.25;10132395;28;20141;-65
2020/12/25 11:47:07;;;;;;;7.18;1.75;;;;;;;3.45;63.81;102074.63;10143933;28;20101;-65
2020/12/25 11:52:03;;;;;;;5.88;1.10;;;;;;;3.37;63.27;102073.09;10131827;28;20078;-65
2020/12/25 11:56:59;;;;;;;6.78;1.42;;;;;;;3.64;63.47;102069.06;10135247;28;20050;-65
2020/12/25 12:01:54;;;;;;;6.60;1.38;;;;;;;3.63;62.92;102073.66;10134922;28;20553;-65
2020/12/25 12:06:50;;;;;;;6.22;1.00;;;;;;;3.80;62.07;102062.91;10140753;28;20054;-65
2020/12/25 12:11:46;;;;;;;5.00;1.15;;;;;;;4.29;61.75;102055.19;10132900;28;20105;-65
2020/12/25 12:16:42;;;;;;;6.78;1.20;;;;;;;4.33;61.19;102056.34;10128908;28;20043;-66
2020/12/25 12:21:39;;;;;;;3.47;0.98;;;;;;;4.64;58.73;102056.91;10129590;28;20054;-66
2020/12/25 12:26:36;;;;;;;8.82;1.10;;;;;;;4.63;58.34;102055.25;10138196;28;20051;-65
2020/12/25 12:31:36;;;;;;;6.03;1.00;;;;;;;5.12;57.66;102063.63;10126123;28;20085;-65
2020/12/25 12:36:32;;;;;;;5.05;0.70;;;;;;;5.76;56.82;102054.22;10134970;28;20061;-65
2020/12/25 12:41:28;;;;;;;5.40;1.25;;;;;;;5.68;56.34;102067.13;10117888;28;20057;-65
2020/12/25 12:46:24;;;;;;;6.10;1.23;;;;;;;5.69;55.05;102068.78;10124463;28;20062;-65
2020/12/25 12:51:20;;;;;;;5.03;0.98;;;;;;;5.60;54.66;102070.28;10125791;28;20421;-65
2020/12/25 12:56:16;;;;;;;5.70;1.25;;;;;;;5.57;54.78;102081.66;10125078;28;20165;-64
2020/12/25 13:01:20;;;;;;;8.35;1.02;;;;;;;5.70;55.28;102081.25;10132062;28;20418;-64
2020/12/25 13:06:16;;;;;;;6.50;1.60;;;;;;;5.96;54.85;102084.31;10124753;28;20051;-65
2020/12/25 13:11:12;;;;;;;7.57;1.77;;;;;;;5.54;55.38;102092.97;10126239;28;20426;-64
2020/12/25 13:16:08;;;;;;;6.80;1.50;;;;;;;5.34;55.31;102084.56;10126055;28;20057;-64
2020/12/25 13:21:04;;;;;;;8.57;1.50;;;;;;;5.41;55.40;102077.91;10128562;28;20493;-66
2020/12/25 13:26:00;;;;;;;5.80;1.58;;;;;;;5.27;56.37;102077.44;10124041;28;20434;-64
2020/12/25 13:30:56;;;;;;;5.50;1.48;;;;;;;5.21;55.61;102073.00;10131828;28;20042;-65
2020/12/25 13:35:52;;;;;;;5.32;1.33;;;;;;;4.80;57.20;102077.78;10137650;28;20050;-65
2020/12/25 13:40:48;;;;;;;8.88;1.10;;;;;;;4.60;57.34;102069.31;10128497;28;20145;-65
2020/12/25 13:45:44;;;;;;;9.27;1.00;;;;;;;4.55;57.39;102074.63;10125953;28;20137;-65
2020/12/25 13:50:40;;;;;;;6.57;1.08;;;;;;;4.48;58.26;102079.34;10123953;28;20082;-64
2020/12/25 13:55:36;;;;;;;4.72;0.88;;;;;;;4.10;58.59;102091.66;10126404;28;20426;-65
2020/12/25 14:00:31;;;;;;;7.47;1.45;;;;;;;3.68;59.26;102075.66;10138387;28;20454;-65
2020/12/25 14:05:27;;;;;;;6.35;1.20;;;;;;;3.64;58.95;102077.19;10138745;28;20050;-65
2020/12/25 14:10:24;;;;;;;6.70;1.90;;;;;;;3.62;59.11;102077.44;10144245;28;20064;-65
2020/12/25 14:15:20;;;;;;;6.82;1.60;;;;;;;3.47;59.24;102072.50;10136942;28;20621;-65
2020/12/25 14:20:16;;;;;;;14.70;3.58;;;;;;;3.58;60.00;102066.25;10137303;28;20058;-65
2020/12/25 14:25:12;;;;;;;8.80;2.72;;;;;;;3.29;60.19;102061.81;10137685;28;20058;-65
2020/12/25 14:30:08;;;;;;;8.27;2.00;;;;;;;3.32;59.64;102056.78;10142127;28;20089;-65
2020/12/25 14:35:04;;;;;;;7.47;1.60;;;;;;;3.24;59.67;102059.81;10135176;28;20057;-65
2020/12/25 14:40:00;;;;;;;5.95;1.23;;;;;;;3.24;60.93;102064.41;10136124;28;20061;-65
2020/12/25 14:44:56;;;;;;;8.10;1.38;;;;;;;3.06;61.17;102063.47;10133574;28;20054;-65
2020/12/25 14:49:52;;;;;;;4.78;1.08;;;;;;;3.10;61.39;102070.03;10133779;28;20039;-66
2020/12/25 14:54:51;;;;;;;11.10;1.98;;;;;;;2.91;62.17;102082.03;10134344;28;20653;-65
2020/12/25 14:59:47;;;;;;;4.57;1.25;;;;;;;2.90;61.91;102088.47;10140019;28;20499;-65
2020/12/25 15:04:43;;;;;;;4.10;1.42;;;;;;;2.86;62.74;102096.22;10132097;28;20043;-65
2020/12/25 15:09:39;;;;;;;5.75;1.40;;;;;;;2.81;62.84;102103.38;10131026;28;20046;-65
2020/12/25 15:14:35;;;;;;;7.95;1.60;;;;;;;2.74;63.46;102107.00;10128880;28;20059;-65
2020/12/25 15:19:31;;;;;;;10.35;1.83;;;;;;;2.46;63.63;102112.19;10127944;28;20076;-65
2020/12/25 15:24:27;;;;;;;6.15;2.22;;;;;;;2.37;64.72;102113.56;10127344;28;20545;-66
2020/12/25 15:29:23;;;;;;;7.10;1.92;;;;;;;2.15;65.29;102132.94;10131801;28;20080;-65
2020/12/25 15:34:19;;;;;;;5.97;1.80;;;;;;;1.99;66.14;102128.97;10132872;28;20095;-65
2020/12/25 15:39:15;;;;;;;8.20;1.52;;;;;;;1.92;66.34;102138.22;10134407;28;20152;-65
2020/12/25 15:44:11;;;;;;;7.38;1.67;;;;;;;1.95;65.78;102132.34;10132339;28;20149;-64
2020/12/25 15:49:07;;;;;;;8.52;2.03;;;;;;;1.96;65.37;102128.63;10139818;28;20049;-64
2020/12/25 15:54:03;;;;;;;5.13;1.58;;;;;;;1.89;65.91;102134.09;10132381;28;20050;-64
2020/12/25 15:58:59;;;;;;;5.53;1.55;;;;;;;1.86;65.74;102135.38;10128360;28;20054;-67
2020/12/25 16:03:55;;;;;;;8.18;1.70;;;;;;;1.81;66.08;102132.53;10122900;28;20043;-67
2020/12/25 16:08:51;;;;;;;8.82;2.17;;;;;;;1.74;66.21;102130.94;10124639;28;20050;-64
2020/12/25 16:13:47;;;;;;;6.68;1.85;;;;;;;1.72;66.49;102133.88;10125308;28;20051;-64
2020/12/25 16:18:43;;;;;;;10.02;1.88;;;;;;;1.70;67.24;102143.22;10123532;28;20038;-64
2020/12/25 16:23:38;;;;;;;7.97;2.35;;;;;;;1.58;67.94;102137.72;10127392;28;20461;-66
2020/12/25 16:28:34;;;;;;;10.55;2.40;;;;;;;1.57;68.38;102136.91;10131445;28;20057;-66
2020/12/25 16:33:31;;;;;;;9.05;2.30;;;;;;;1.47;69.02;102126.63;10120195;28;20434;-66
2020/12/25 16:38:29;;;;;;;8.38;2.28;;;;;;;1.54;69.08;102131.16;10136964;28;20049;-63
2020/12/25 16:43:25;;;;;;;7.32;3.00;;;;;;;1.43;69.62;102130.81;10133260;28;20129;-64
2020/12/25 16:48:21;;;;;;;6.85;2.20;;;;;;;1.49;70.28;102134.50;10132603;28;20042;-64
2020/12/25 16:53:17;;;;;;;10.05;2.63;;;;;;;1.40;70.82;102144.75;10136196;28;20066;-64
2020/12/25 16:58:13;;;;;;;8.43;2.58;;;;;;;1.42;70.78;102158.84;10135695;28;20042;-66
2020/12/25 17:03:09;;;;;;;8.98;3.17;;;;;;;1.25;71.87;102155.03;10125838;28;20047;-64
2020/12/25 17:08:05;;;;;;;8.85;3.22;;;;;;;1.27;71.75;102163.72;10124753;28;20046;-64
2020/12/25 17:13:01;;;;;;;13.32;2.80;;;;;;;1.21;72.51;102161.94;10127234;28;20643;-64
2020/12/25 17:17:57;;;;;;;7.78;2.45;;;;;;;1.09;72.99;102160.97;10129063;28;20053;-67
2020/12/25 17:22:54;;;;;;;8.50;2.40;;;;;;;0.95;73.71;102166.47;10120438;28;20046;-64
2020/12/25 17:27:50;;;;;;;10.00;3.15;;;;;;;0.98;73.82;102160.63;10137570;28;20054;-67
2020/12/25 17:32:47;;;;;;;8.90;3.05;;;;;;;0.91;74.02;102165.25;10147445;28;20430;-65
2020/12/25 17:37:43;;;;;;;9.50;2.28;;;;;;;1.01;73.70;102176.34;10148131;28;20079;-64
2020/12/25 17:42:42;;;;;;;7.68;2.75;;;;;;;1.03;73.58;102168.88;10143585;28;20109;-65
2020/12/25 17:47:38;;;;;;;12.02;3.13;;;;;;;0.94;73.84;102177.44;10130686;28;20058;-64
2020/12/25 17:52:36;;;;;;;9.13;2.60;;;;;;;1.01;73.57;102181.75;10136947;28;20050;-64
2020/12/25 17:57:32;;;;;;;9.27;2.72;;;;;;;1.00;73.85;102180.09;10140924;28;20054;-64
2020/12/25 18:02:28;;;;;;;9.18;3.05;;;;;;;0.95;73.69;102193.41;10133198;28;20058;-64
2020/12/25 18:07:24;;;;;;;10.48;3.67;;;;;;;0.94;74.00;102193.59;10136168;28;20061;-64
2020/12/25 18:12:20;;;;;;;9.40;2.83;;;;;;;0.81;74.19;102191.81;10118782;28;20058;-64
2020/12/25 18:17:16;;;;;;;6.63;2.63;;;;;;;0.62;74.96;102194.41;10124319;28;20092;-64
2020/12/25 18:22:14;;;;;;;14.20;3.55;;;;;;;0.70;74.82;102193.34;10138012;28;20053;-64
2020/12/25 18:27:10;;;;;;;9.07;3.38;;;;;;;0.66;74.61;102194.00;10142194;28;20061;-65
2020/12/25 18:32:07;;;;;;;11.77;3.72;;;;;;;0.55;75.11;102182.03;10148629;28;20051;-65
2020/12/25 18:37:03;;;;;;;11.40;3.20;;;;;;;0.62;74.69;102178.25;10142250;28;20053;-65
2020/12/25 18:41:59;;;;;;;8.98;3.33;;;;;;;0.64;74.90;102186.13;10130320;28;20055;-66
2020/12/25 18:46:57;;;;;;;11.48;3.28;;;;;;;0.55;74.87;102182.84;10140909;28;20061;-64
2020/12/25 18:51:53;;;;;;;10.52;3.78;;;;;;;0.61;74.40;102182.00;10132849;28;20400;-65
2020/12/25 18:56:49;;;;;;;9.18;3.05;;;;;;;0.65;74.35;102174.31;10138676;28;20054;-65
2020/12/25 19:01:45;;;;;;;7.32;2.90;;;;;;;0.58;73.67;102176.19;10127354;28;20065;-64
2020/12/25 19:06:41;;;;;;;6.65;2.40;;;;;;;0.59;73.63;102173.31;10137414;28;20054;-65
2020/12/25 19:11:37;;;;;;;7.30;2.45;;;;;;;0.59;73.31;102167.91;10147146;28;20050;-65
2020/12/25 19:16:33;;;;;;;8.38;2.60;;;;;;;0.55;73.11;102172.06;10140190;28;20089;-65
2020/12/25 19:21:30;;;;;;;6.85;2.40;;;;;;;0.62;72.92;102172.88;10127958;28;20137;-65
2020/12/25 19:26:30;;;;;;;11.48;3.00;;;;;;;0.65;72.59;102184.25;10130028;28;20079;-66
2020/12/25 19:31:26;;;;;;;11.35;2.85;;;;;;;0.62;72.46;102189.00;10134476;28;20106;-64
2020/12/25 19:36:22;;;;;;;11.35;3.05;;;;;;;0.56;72.24;102179.13;10132006;28;20054;-65
2020/12/25 19:41:18;;;;;;;11.13;2.42;;;;;;;0.51;72.01;102175.41;10125483;28;20615;-64
2020/12/25 19:46:14;;;;;;;7.60;3.03;;;;;;;0.58;71.90;102187.81;10131301;28;20654;-65
2020/12/25 19:51:14;;;;;;;6.78;2.53;;;;;;;0.62;72.22;102177.44;10135879;28;20055;-65
2020/12/25 19:56:10;;;;;;;9.88;2.58;;;;;;;0.59;71.81;102188.63;10134798;28;20058;-65
2020/12/25 20:01:07;;;;;;;8.30;2.70;;;;;;;0.54;71.50;102170.44;10123933;28;20511;-65
2020/12/25 20:06:04;;;;;;;8.48;2.67;;;;;;;0.46;71.63;102167.97;10129299;28;20081;-65
2020/12/25 20:11:00;;;;;;;10.65;3.45;;;;;;;0.53;71.42;102171.47;10126530;28;20046;-64
2020/12/25 20:15:56;;;;;;;13.52;4.80;;;;;;;0.41;72.77;102167.81;10135952;28;20072;-65
2020/12/25 20:20:52;;;;;;;10.18;3.33;;;;;;;0.27;73.49;102168.91;10136843;28;20051;-64
2020/12/25 20:25:48;;;;;;;9.82;2.80;;;;;;;0.19;73.51;102168.09;10118155;28;20065;-67
2020/12/25 20:30:44;;;;;;;8.75;3.20;;;;;;;0.13;74.07;102163.56;10136280;28;20054;-65
2020/12/25 20:35:40;;;;;;;6.10;2.92;;;;;;;0.09;74.41;102151.56;10128649;28;20647;-66
2020/12/25 20:40:36;;;;;;;5.60;3.00;;;;;;;0.03;74.73;102159.69;10131485;28;20056;-66
2020/12/25 20:45:32;;;;;;;6.82;3.17;;;;;;;0.01;75.10;102149.13;10124409;28;20059;-65
2020/12/25 20:50:29;;;;;;;7.28;3.33;;;;;;;-0.09;75.32;102148.78;10121899;28;20062;-66
2020/12/25 20:55:25;;;;;;;8.65;3.47;;;;;;;-0.13;75.88;102148.34;10121246;28;20069;-65
2020/12/25 21:00:21;;;;;;;9.85;3.50;;;;;;;-0.13;75.39;102158.28;10128065;28;20051;-66
2020/12/25 21:05:17;;;;;;;7.93;3.63;;;;;;;-0.12;76.02;102159.94;10122681;28;20054;-66
2020/12/25 21:10:13;;;;;;;12.25;4.53;;;;;;;-0.11;75.84;102153.53;10144471;28;20069;-65
2020/12/25 21:15:09;;;;;;;12.50;4.03;;;;;;;-0.05;75.64;102147.28;10143002;28;20057;-66
2020/12/25 21:20:06;;;;;;;9.75;3.72;;;;;;;-0.11;76.03;102140.09;10137034;28;20046;-65
2020/12/25 21:25:03;;;;;;;11.40;4.68;;;;;;;-0.13;76.33;102142.16;10141580;28;20058;-66
2020/12/25 21:29:59;;;;;;;12.88;4.63;;;;;;;-0.23;76.20;102146.13;10136372;28;20134;-65
2020/12/25 21:34:56;;;;;;;8.32;4.40;;;;;;;-0.23;76.01;102148.81;10128070;28;20704;-66
2020/12/25 21:39:53;;;;;;;11.65;4.88;;;;;;;-0.25;75.98;102150.88;10126161;28;20551;-65
2020/12/25 21:44:48;;;;;;;10.20;4.70;;;;;;;-0.20;76.14;102146.72;10123242;28;20808;-66
2020/12/25 21:49:53;;;;;;;8.57;4.53;;;;;;;-0.24;76.52;102147.13;10124443;28;20051;-66
2020/12/25 21:54:50;;;;;;;11.57;5.00;;;;;;;-0.18;76.64;102145.47;10135947;28;20050;-66
2020/12/25 21:59:46;;;;;;;11.60;4.75;;;;;;;-0.28;76.51;102145.94;10137867;28;20046;-66
2020/12/25 22:04:42;;;;;;;13.13;4.70;;;;;;;-0.35;76.72;102150.47;10147763;28;20050;-65
2020/12/25 22:09:38;;;;;;;12.80;4.72;;;;;;;-0.40;76.95;102144.06;10144264;28;20046;-66
2020/12/25 22:14:34;;;;;;;10.43;4.40;;;;;;;-0.33;76.58;102142.19;10134227;28;20427;-66
2020/12/25 22:19:30;;;;;;;8.23;3.83;;;;;;;-0.31;76.60;102140.13;10138066;28;20062;-66
2020/12/25 22:24:26;;;;;;;11.20;4.43;;;;;;;-0.32;77.06;102133.94;10128905;28;20081;-65
2020/12/25 22:29:21;;;;;;;8.63;3.55;;;;;;;-0.42;77.10;102133.53;10130977;28;20050;-66
2020/12/25 22:34:18;;;;;;;9.98;3.72;;;;;;;-0.33;77.05;102126.06;10136424;28;20145;-66
2020/12/25 22:39:14;;;;;;;5.95;2.75;;;;;;;-0.17;77.25;102130.16;10136359;28;20085;-65
2020/12/25 22:44:10;;;;;;;9.07;3.22;;;;;;;-0.05;77.19;102123.09;10117377;28;20054;-66
2020/12/25 22:49:07;;;;;;;10.88;2.67;;;;;;;-0.09;77.41;102135.31;10125093;28;20391;-66
2020/12/25 22:54:04;;;;;;;8.20;2.60;;;;;;;-0.12;78.37;102127.66;10129800;28;20526;-66